sensor_id;sensor_type;location;lat;lon;timestamp;P1;durP1;ratioP1;P2;durP2;ratioP2
58238;SDS011;44037;55.638;37.356;2023-03-14T00:00:15;4.40;;;2.13;;
58238;SDS011;44037;55.638;37.356;2023-03-14T00:02:43;4.80;;;2.20;;
58238;SDS011;44037;55.638;37.356;2023-03-14T00:05:10;5.30;;;2.35;;
58238;SDS011;44037;55.638;37.356;2023-03-14T00:07:38;6.55;;;2.65;;
58238;SDS011;44037;55.638;37.356;2023-03-14T00:10:07;5.10;;;2.33;;
58238;SDS011;44037;55.638;37.356;2023-03-14T00:12:36;5.63;;;2.22;;
58238;SDS011;44037;55.638;37.356;2023-03-14T00:15:03;6.55;;;2.75;;
58238;SDS011;44037;55.638;37.356;2023-03-14T00:17:32;2.63;;;1.88;;
58238;SDS011;44037;55.638;37.356;2023-03-14T00:20:00;4.47;;;2.10;;
58238;SDS011;44037;55.638;37.356;2023-03-14T00:22:33;6.07;;;2.22;;
58238;SDS011;44037;55.638;37.356;2023-03-14T00:25:00;7.30;;;2.40;;
58238;SDS011;44037;55.638;37.356;2023-03-14T00:27:30;4.63;;;2.22;;
58238;SDS011;44037;55.638;37.356;2023-03-14T00:29:57;4.40;;;2.50;;
58238;SDS011;44037;55.638;37.356;2023-03-14T00:32:24;3.47;;;1.95;;
58238;SDS011;44037;55.638;37.356;2023-03-14T00:34:52;5.10;;;2.10;;
58238;SDS011;44037;55.638;37.356;2023-03-14T00:37:19;2.72;;;1.80;;
58238;SDS011;44037;55.638;37.356;2023-03-14T00:39:46;4.30;;;2.10;;
58238;SDS011;44037;55.638;37.356;2023-03-14T00:42:13;3.17;;;2.20;;
58238;SDS011;44037;55.638;37.356;2023-03-14T00:44:41;3.97;;;2.08;;
58238;SDS011;44037;55.638;37.356;2023-03-14T00:47:08;4.18;;;2.17;;
58238;SDS011;44037;55.638;37.356;2023-03-14T00:49:35;5.78;;;2.25;;
58238;SDS011;44037;55.638;37.356;2023-03-14T00:52:03;4.60;;;2.05;;
58238;SDS011;44037;55.638;37.356;2023-03-14T00:54:30;4.05;;;1.92;;
58238;SDS011;44037;55.638;37.356;2023-03-14T00:56:57;3.08;;;2.00;;
58238;SDS011;44037;55.638;37.356;2023-03-14T00:59:24;4.53;;;2.35;;
58238;SDS011;44037;55.638;37.356;2023-03-14T01:01:52;7.07;;;2.28;;
58238;SDS011;44037;55.638;37.356;2023-03-14T01:04:19;4.07;;;2.05;;
58238;SDS011;44037;55.638;37.356;2023-03-14T01:06:46;4.15;;;2.10;;
58238;SDS011;44037;55.638;37.356;2023-03-14T01:09:13;3.75;;;2.50;;
58238;SDS011;44037;55.638;37.356;2023-03-14T01:11:43;5.32;;;2.42;;
58238;SDS011;44037;55.638;37.356;2023-03-14T01:14:11;3.53;;;2.08;;
58238;SDS011;44037;55.638;37.356;2023-03-14T01:16:39;6.18;;;2.85;;
58238;SDS011;44037;55.638;37.356;2023-03-14T01:19:08;4.65;;;2.58;;
58238;SDS011;44037;55.638;37.356;2023-03-14T01:21:36;5.03;;;2.55;;
58238;SDS011;44037;55.638;37.356;2023-03-14T01:24:04;3.92;;;2.60;;
58238;SDS011;44037;55.638;37.356;2023-03-14T01:26:33;4.82;;;2.15;;
58238;SDS011;44037;55.638;37.356;2023-03-14T01:29:01;3.97;;;2.45;;
58238;SDS011;44037;55.638;37.356;2023-03-14T01:31:28;4.55;;;2.60;;
58238;SDS011;44037;55.638;37.356;2023-03-14T01:33:55;3.88;;;2.10;;
58238;SDS011;44037;55.638;37.356;2023-03-14T01:36:24;4.32;;;2.38;;
58238;SDS011;44037;55.638;37.356;2023-03-14T01:38:51;3.92;;;2.47;;
58238;SDS011;44037;55.638;37.356;2023-03-14T01:41:19;4.50;;;2.50;;
58238;SDS011;44037;55.638;37.356;2023-03-14T01:43:48;5.72;;;3.17;;
58238;SDS011;44037;55.638;37.356;2023-03-14T01:49:03;6.53;;;2.25;;
58238;SDS011;44037;55.638;37.356;2023-03-14T01:51:38;5.28;;;2.50;;
58238;SDS011;44037;55.638;37.356;2023-03-14T01:54:13;6.03;;;2.95;;
58238;SDS011;44037;55.638;37.356;2023-03-14T01:56:46;4.82;;;3.08;;
58238;SDS011;44037;55.638;37.356;2023-03-14T01:59:17;3.72;;;2.70;;
58238;SDS011;44037;55.638;37.356;2023-03-14T02:01:44;3.83;;;2.92;;
58238;SDS011;44037;55.638;37.356;2023-03-14T02:04:14;6.30;;;3.00;;
58238;SDS011;44037;55.638;37.356;2023-03-14T02:06:51;5.63;;;2.70;;
58238;SDS011;44037;55.638;37.356;2023-03-14T02:09:22;5.43;;;3.30;;
58238;SDS011;44037;55.638;37.356;2023-03-14T02:11:50;5.07;;;2.88;;
58238;SDS011;44037;55.638;37.356;2023-03-14T02:14:20;7.10;;;3.28;;
58238;SDS011;44037;55.638;37.356;2023-03-14T02:16:53;4.20;;;3.00;;
58238;SDS011;44037;55.638;37.356;2023-03-14T02:19:25;7.65;;;3.10;;
58238;SDS011;44037;55.638;37.356;2023-03-14T02:22:05;4.63;;;2.85;;
58238;SDS011;44037;55.638;37.356;2023-03-14T02:24:38;5.82;;;3.00;;
58238;SDS011;44037;55.638;37.356;2023-03-14T02:27:15;6.35;;;3.42;;
58238;SDS011;44037;55.638;37.356;2023-03-14T02:29:48;6.55;;;3.72;;
58238;SDS011;44037;55.638;37.356;2023-03-14T02:32:19;5.47;;;3.38;;
58238;SDS011;44037;55.638;37.356;2023-03-14T02:34:49;4.22;;;3.35;;
58238;SDS011;44037;55.638;37.356;2023-03-14T02:37:20;7.07;;;3.38;;
58238;SDS011;44037;55.638;37.356;2023-03-14T02:39:49;6.15;;;2.85;;
58238;SDS011;44037;55.638;37.356;2023-03-14T02:42:18;5.43;;;3.35;;
58238;SDS011;44037;55.638;37.356;2023-03-14T02:44:49;4.80;;;3.63;;
58238;SDS011;44037;55.638;37.356;2023-03-14T02:47:18;6.25;;;3.33;;
58238;SDS011;44037;55.638;37.356;2023-03-14T02:49:48;5.65;;;3.65;;
58238;SDS011;44037;55.638;37.356;2023-03-14T02:52:18;6.43;;;3.60;;
58238;SDS011;44037;55.638;37.356;2023-03-14T02:54:45;6.72;;;4.15;;
58238;SDS011;44037;55.638;37.356;2023-03-14T02:57:12;8.45;;;4.20;;
58238;SDS011;44037;55.638;37.356;2023-03-14T02:59:41;6.68;;;4.38;;
58238;SDS011;44037;55.638;37.356;2023-03-14T03:02:08;6.85;;;4.28;;
58238;SDS011;44037;55.638;37.356;2023-03-14T03:04:35;5.35;;;3.80;;
58238;SDS011;44037;55.638;37.356;2023-03-14T03:07:02;6.47;;;4.72;;
58238;SDS011;44037;55.638;37.356;2023-03-14T03:09:29;9.75;;;4.85;;
58238;SDS011;44037;55.638;37.356;2023-03-14T03:11:56;9.65;;;4.70;;
58238;SDS011;44037;55.638;37.356;2023-03-14T03:14:23;7.65;;;4.28;;
58238;SDS011;44037;55.638;37.356;2023-03-14T03:16:51;9.77;;;4.88;;
58238;SDS011;44037;55.638;37.356;2023-03-14T03:19:18;8.63;;;4.85;;
58238;SDS011;44037;55.638;37.356;2023-03-14T03:21:46;6.78;;;4.55;;
58238;SDS011;44037;55.638;37.356;2023-03-14T03:24:13;10.05;;;5.13;;
58238;SDS011;44037;55.638;37.356;2023-03-14T03:26:40;9.65;;;4.90;;
58238;SDS011;44037;55.638;37.356;2023-03-14T03:29:07;7.55;;;4.78;;
58238;SDS011;44037;55.638;37.356;2023-03-14T03:31:36;7.65;;;4.72;;
58238;SDS011;44037;55.638;37.356;2023-03-14T03:34:05;9.15;;;4.38;;
58238;SDS011;44037;55.638;37.356;2023-03-14T03:36:32;6.88;;;4.53;;
58238;SDS011;44037;55.638;37.356;2023-03-14T03:38:59;8.18;;;4.47;;
58238;SDS011;44037;55.638;37.356;2023-03-14T03:41:26;7.53;;;4.85;;
58238;SDS011;44037;55.638;37.356;2023-03-14T03:43:53;6.50;;;4.45;;
58238;SDS011;44037;55.638;37.356;2023-03-14T03:46:21;7.32;;;4.57;;
58238;SDS011;44037;55.638;37.356;2023-03-14T03:48:48;6.95;;;4.50;;
58238;SDS011;44037;55.638;37.356;2023-03-14T03:51:16;12.18;;;5.10;;
58238;SDS011;44037;55.638;37.356;2023-03-14T03:53:43;9.68;;;5.43;;
58238;SDS011;44037;55.638;37.356;2023-03-14T03:56:10;7.70;;;4.32;;
58238;SDS011;44037;55.638;37.356;2023-03-14T03:58:37;9.85;;;4.93;;
58238;SDS011;44037;55.638;37.356;2023-03-14T04:01:05;7.75;;;5.00;;
58238;SDS011;44037;55.638;37.356;2023-03-14T04:03:32;8.38;;;5.25;;
58238;SDS011;44037;55.638;37.356;2023-03-14T04:06:00;9.60;;;4.88;;
58238;SDS011;44037;55.638;37.356;2023-03-14T04:08:29;8.40;;;5.43;;
58238;SDS011;44037;55.638;37.356;2023-03-14T04:10:57;8.73;;;5.72;;
58238;SDS011;44037;55.638;37.356;2023-03-14T04:13:25;7.10;;;5.00;;
58238;SDS011;44037;55.638;37.356;2023-03-14T04:15:53;7.13;;;5.60;;
58238;SDS011;44037;55.638;37.356;2023-03-14T04:18:21;9.90;;;5.82;;
58238;SDS011;44037;55.638;37.356;2023-03-14T04:20:50;8.45;;;5.93;;
58238;SDS011;44037;55.638;37.356;2023-03-14T04:23:18;8.77;;;6.05;;
58238;SDS011;44037;55.638;37.356;2023-03-14T04:25:46;10.85;;;6.18;;
58238;SDS011;44037;55.638;37.356;2023-03-14T04:28:14;10.32;;;6.07;;
58238;SDS011;44037;55.638;37.356;2023-03-14T04:30:41;9.65;;;6.55;;
58238;SDS011;44037;55.638;37.356;2023-03-14T04:33:08;9.90;;;5.30;;
58238;SDS011;44037;55.638;37.356;2023-03-14T04:35:35;8.25;;;5.28;;
58238;SDS011;44037;55.638;37.356;2023-03-14T04:38:02;10.75;;;5.93;;
58238;SDS011;44037;55.638;37.356;2023-03-14T04:40:29;7.65;;;5.32;;
58238;SDS011;44037;55.638;37.356;2023-03-14T04:42:58;6.85;;;5.13;;
58238;SDS011;44037;55.638;37.356;2023-03-14T04:45:25;8.77;;;5.70;;
58238;SDS011;44037;55.638;37.356;2023-03-14T04:47:52;7.60;;;5.53;;
58238;SDS011;44037;55.638;37.356;2023-03-14T04:50:19;10.77;;;5.80;;
58238;SDS011;44037;55.638;37.356;2023-03-14T04:52:46;10.57;;;5.88;;
58238;SDS011;44037;55.638;37.356;2023-03-14T04:55:13;12.23;;;6.00;;
58238;SDS011;44037;55.638;37.356;2023-03-14T04:57:40;10.30;;;5.57;;
58238;SDS011;44037;55.638;37.356;2023-03-14T05:00:10;10.48;;;5.50;;
58238;SDS011;44037;55.638;37.356;2023-03-14T05:02:38;8.68;;;5.50;;
58238;SDS011;44037;55.638;37.356;2023-03-14T05:05:05;8.65;;;5.30;;
58238;SDS011;44037;55.638;37.356;2023-03-14T05:07:33;9.23;;;5.70;;
58238;SDS011;44037;55.638;37.356;2023-03-14T05:10:00;12.43;;;5.70;;
58238;SDS011;44037;55.638;37.356;2023-03-14T05:12:28;9.40;;;6.00;;
58238;SDS011;44037;55.638;37.356;2023-03-14T05:14:55;9.85;;;5.45;;
58238;SDS011;44037;55.638;37.356;2023-03-14T05:17:23;12.32;;;5.80;;
58238;SDS011;44037;55.638;37.356;2023-03-14T05:19:50;11.60;;;6.03;;
58238;SDS011;44037;55.638;37.356;2023-03-14T05:22:17;8.73;;;6.15;;
58238;SDS011;44037;55.638;37.356;2023-03-14T05:24:46;7.60;;;5.47;;
58238;SDS011;44037;55.638;37.356;2023-03-14T05:27:13;8.93;;;5.57;;
58238;SDS011;44037;55.638;37.356;2023-03-14T05:29:40;7.95;;;5.55;;
58238;SDS011;44037;55.638;37.356;2023-03-14T05:32:07;8.75;;;5.38;;
58238;SDS011;44037;55.638;37.356;2023-03-14T05:34:35;9.10;;;5.85;;
58238;SDS011;44037;55.638;37.356;2023-03-14T05:37:03;10.68;;;5.70;;
58238;SDS011;44037;55.638;37.356;2023-03-14T05:39:30;11.38;;;5.40;;
58238;SDS011;44037;55.638;37.356;2023-03-14T05:41:57;10.20;;;6.13;;
58238;SDS011;44037;55.638;37.356;2023-03-14T05:44:24;7.72;;;4.80;;
58238;SDS011;44037;55.638;37.356;2023-03-14T05:46:51;10.68;;;5.72;;
58238;SDS011;44037;55.638;37.356;2023-03-14T05:49:18;9.02;;;5.53;;
58238;SDS011;44037;55.638;37.356;2023-03-14T05:51:46;9.88;;;5.72;;
58238;SDS011;44037;55.638;37.356;2023-03-14T05:54:13;7.80;;;5.35;;
58238;SDS011;44037;55.638;37.356;2023-03-14T05:56:40;11.05;;;6.03;;
58238;SDS011;44037;55.638;37.356;2023-03-14T05:59:07;9.25;;;5.65;;
58238;SDS011;44037;55.638;37.356;2023-03-14T06:01:35;5.70;;;4.72;;
58238;SDS011;44037;55.638;37.356;2023-03-14T06:04:02;7.80;;;5.10;;
58238;SDS011;44037;55.638;37.356;2023-03-14T06:06:29;10.93;;;5.65;;
58238;SDS011;44037;55.638;37.356;2023-03-14T06:08:57;7.78;;;4.82;;
58238;SDS011;44037;55.638;37.356;2023-03-14T06:11:24;9.35;;;5.38;;
58238;SDS011;44037;55.638;37.356;2023-03-14T06:13:51;11.05;;;4.82;;
58238;SDS011;44037;55.638;37.356;2023-03-14T06:16:18;11.32;;;5.00;;
58238;SDS011;44037;55.638;37.356;2023-03-14T06:18:46;8.80;;;5.82;;
58238;SDS011;44037;55.638;37.356;2023-03-14T06:21:14;10.35;;;5.28;;
58238;SDS011;44037;55.638;37.356;2023-03-14T06:23:41;8.48;;;5.05;;
58238;SDS011;44037;55.638;37.356;2023-03-14T06:26:09;7.60;;;4.70;;
58238;SDS011;44037;55.638;37.356;2023-03-14T06:28:37;6.35;;;4.35;;
58238;SDS011;44037;55.638;37.356;2023-03-14T06:31:05;9.90;;;5.75;;
58238;SDS011;44037;55.638;37.356;2023-03-14T06:33:32;8.25;;;4.88;;
58238;SDS011;44037;55.638;37.356;2023-03-14T06:35:59;10.07;;;5.10;;
58238;SDS011;44037;55.638;37.356;2023-03-14T06:38:26;9.23;;;5.85;;
58238;SDS011;44037;55.638;37.356;2023-03-14T06:40:53;10.70;;;5.65;;
58238;SDS011;44037;55.638;37.356;2023-03-14T06:43:22;8.20;;;5.22;;
58238;SDS011;44037;55.638;37.356;2023-03-14T06:45:49;7.30;;;5.47;;
58238;SDS011;44037;55.638;37.356;2023-03-14T06:48:16;8.45;;;4.97;;
58238;SDS011;44037;55.638;37.356;2023-03-14T06:50:44;8.05;;;4.95;;
58238;SDS011;44037;55.638;37.356;2023-03-14T06:53:11;10.60;;;5.30;;
58238;SDS011;44037;55.638;37.356;2023-03-14T06:55:38;7.43;;;4.85;;
58238;SDS011;44037;55.638;37.356;2023-03-14T06:58:05;8.30;;;4.75;;
58238;SDS011;44037;55.638;37.356;2023-03-14T07:00:34;7.78;;;5.20;;
58238;SDS011;44037;55.638;37.356;2023-03-14T07:03:01;10.30;;;5.20;;
58238;SDS011;44037;55.638;37.356;2023-03-14T07:05:29;9.90;;;5.35;;
58238;SDS011;44037;55.638;37.356;2023-03-14T07:07:56;8.30;;;5.28;;
58238;SDS011;44037;55.638;37.356;2023-03-14T07:10:23;8.32;;;5.07;;
58238;SDS011;44037;55.638;37.356;2023-03-14T07:12:50;11.30;;;5.22;;
58238;SDS011;44037;55.638;37.356;2023-03-14T07:15:19;8.95;;;4.88;;
58238;SDS011;44037;55.638;37.356;2023-03-14T07:17:47;10.40;;;5.03;;
58238;SDS011;44037;55.638;37.356;2023-03-14T07:20:14;10.30;;;5.20;;
58238;SDS011;44037;55.638;37.356;2023-03-14T07:22:41;9.05;;;4.95;;
58238;SDS011;44037;55.638;37.356;2023-03-14T07:25:09;7.38;;;4.88;;
58238;SDS011;44037;55.638;37.356;2023-03-14T07:27:38;8.07;;;5.13;;
58238;SDS011;44037;55.638;37.356;2023-03-14T07:30:05;14.80;;;9.02;;
58238;SDS011;44037;55.638;37.356;2023-03-14T07:32:33;13.20;;;9.90;;
58238;SDS011;44037;55.638;37.356;2023-03-14T07:35:01;10.38;;;7.45;;
58238;SDS011;44037;55.638;37.356;2023-03-14T07:37:29;10.00;;;5.40;;
58238;SDS011;44037;55.638;37.356;2023-03-14T07:39:56;10.63;;;5.13;;
58238;SDS011;44037;55.638;37.356;2023-03-14T07:42:23;11.70;;;5.13;;
58238;SDS011;44037;55.638;37.356;2023-03-14T07:44:50;10.93;;;5.60;;
58238;SDS011;44037;55.638;37.356;2023-03-14T07:47:17;8.40;;;5.10;;
58238;SDS011;44037;55.638;37.356;2023-03-14T07:49:44;10.20;;;4.70;;
58238;SDS011;44037;55.638;37.356;2023-03-14T07:52:13;8.15;;;5.10;;
58238;SDS011;44037;55.638;37.356;2023-03-14T07:54:40;8.73;;;5.05;;
58238;SDS011;44037;55.638;37.356;2023-03-14T07:57:07;8.43;;;5.15;;
58238;SDS011;44037;55.638;37.356;2023-03-14T07:59:34;7.85;;;5.55;;
58238;SDS011;44037;55.638;37.356;2023-03-14T08:02:01;11.70;;;5.47;;
58238;SDS011;44037;55.638;37.356;2023-03-14T08:04:30;9.05;;;5.05;;
58238;SDS011;44037;55.638;37.356;2023-03-14T08:06:57;9.20;;;5.20;;
58238;SDS011;44037;55.638;37.356;2023-03-14T08:09:26;9.27;;;5.55;;
58238;SDS011;44037;55.638;37.356;2023-03-14T08:11:53;7.88;;;5.20;;
58238;SDS011;44037;55.638;37.356;2023-03-14T08:14:20;7.57;;;5.00;;
58238;SDS011;44037;55.638;37.356;2023-03-14T08:16:49;8.00;;;5.35;;
58238;SDS011;44037;55.638;37.356;2023-03-14T08:19:16;7.72;;;5.28;;
58238;SDS011;44037;55.638;37.356;2023-03-14T08:21:43;8.65;;;5.07;;
58238;SDS011;44037;55.638;37.356;2023-03-14T08:24:10;7.75;;;5.07;;
58238;SDS011;44037;55.638;37.356;2023-03-14T08:26:38;9.45;;;5.80;;
58238;SDS011;44037;55.638;37.356;2023-03-14T08:29:06;8.30;;;5.70;;
58238;SDS011;44037;55.638;37.356;2023-03-14T08:31:33;10.05;;;5.63;;
58238;SDS011;44037;55.638;37.356;2023-03-14T08:34:01;9.45;;;5.85;;
58238;SDS011;44037;55.638;37.356;2023-03-14T08:36:28;8.15;;;5.18;;
58238;SDS011;44037;55.638;37.356;2023-03-14T08:38:56;8.27;;;5.00;;
58238;SDS011;44037;55.638;37.356;2023-03-14T08:41:23;10.05;;;5.70;;
58238;SDS011;44037;55.638;37.356;2023-03-14T08:43:52;7.38;;;5.05;;
58238;SDS011;44037;55.638;37.356;2023-03-14T08:46:19;10.30;;;5.78;;
58238;SDS011;44037;55.638;37.356;2023-03-14T08:48:46;7.07;;;5.00;;
58238;SDS011;44037;55.638;37.356;2023-03-14T08:51:13;10.23;;;5.57;;
58238;SDS011;44037;55.638;37.356;2023-03-14T08:53:41;8.57;;;5.35;;
58238;SDS011;44037;55.638;37.356;2023-03-14T08:56:10;8.65;;;5.80;;
58238;SDS011;44037;55.638;37.356;2023-03-14T08:58:37;9.02;;;5.75;;
58238;SDS011;44037;55.638;37.356;2023-03-14T09:01:07;9.38;;;6.20;;
58238;SDS011;44037;55.638;37.356;2023-03-14T09:03:35;7.95;;;5.70;;
58238;SDS011;44037;55.638;37.356;2023-03-14T09:06:03;8.35;;;5.28;;
58238;SDS011;44037;55.638;37.356;2023-03-14T09:08:31;9.25;;;5.28;;
58238;SDS011;44037;55.638;37.356;2023-03-14T09:10:58;8.45;;;5.68;;
58238;SDS011;44037;55.638;37.356;2023-03-14T09:13:25;7.97;;;5.38;;
58238;SDS011;44037;55.638;37.356;2023-03-14T09:15:52;8.45;;;6.15;;
58238;SDS011;44037;55.638;37.356;2023-03-14T09:18:22;10.25;;;5.68;;
58238;SDS011;44037;55.638;37.356;2023-03-14T09:20:49;12.02;;;7.00;;
58238;SDS011;44037;55.638;37.356;2023-03-14T09:23:16;10.73;;;7.43;;
58238;SDS011;44037;55.638;37.356;2023-03-14T09:25:43;10.80;;;6.10;;
58238;SDS011;44037;55.638;37.356;2023-03-14T09:28:10;9.23;;;5.80;;
58238;SDS011;44037;55.638;37.356;2023-03-14T09:30:37;7.45;;;5.50;;
58238;SDS011;44037;55.638;37.356;2023-03-14T09:33:04;9.50;;;5.93;;
58238;SDS011;44037;55.638;37.356;2023-03-14T09:35:34;8.82;;;5.82;;
58238;SDS011;44037;55.638;37.356;2023-03-14T09:38:01;13.23;;;6.03;;
58238;SDS011;44037;55.638;37.356;2023-03-14T09:40:30;11.25;;;6.75;;
58238;SDS011;44037;55.638;37.356;2023-03-14T09:43:00;10.25;;;6.07;;
58238;SDS011;44037;55.638;37.356;2023-03-14T09:45:28;8.85;;;5.35;;
58238;SDS011;44037;55.638;37.356;2023-03-14T09:47:58;11.02;;;6.07;;
58238;SDS011;44037;55.638;37.356;2023-03-14T09:50:26;11.10;;;8.40;;
58238;SDS011;44037;55.638;37.356;2023-03-14T09:53:01;8.35;;;6.78;;
58238;SDS011;44037;55.638;37.356;2023-03-14T09:55:31;11.50;;;7.30;;
58238;SDS011;44037;55.638;37.356;2023-03-14T09:58:00;11.77;;;6.97;;
58238;SDS011;44037;55.638;37.356;2023-03-14T10:00:31;7.75;;;6.47;;
58238;SDS011;44037;55.638;37.356;2023-03-14T10:03:00;7.78;;;5.90;;
58238;SDS011;44037;55.638;37.356;2023-03-14T10:05:45;7.60;;;5.63;;
58238;SDS011;44037;55.638;37.356;2023-03-14T10:08:13;7.35;;;6.07;;
58238;SDS011;44037;55.638;37.356;2023-03-14T10:10:40;12.68;;;6.28;;
58238;SDS011;44037;55.638;37.356;2023-03-14T10:13:10;7.50;;;5.90;;
58238;SDS011;44037;55.638;37.356;2023-03-14T10:15:41;8.60;;;6.15;;
58238;SDS011;44037;55.638;37.356;2023-03-14T10:18:14;16.98;;;6.97;;
58238;SDS011;44037;55.638;37.356;2023-03-14T10:20:42;12.05;;;6.10;;
58238;SDS011;44037;55.638;37.356;2023-03-14T10:23:23;10.35;;;6.13;;
58238;SDS011;44037;55.638;37.356;2023-03-14T10:26:07;7.88;;;5.80;;
58238;SDS011;44037;55.638;37.356;2023-03-14T10:28:39;11.35;;;5.72;;
58238;SDS011;44037;55.638;37.356;2023-03-14T10:31:09;8.52;;;5.78;;
58238;SDS011;44037;55.638;37.356;2023-03-14T10:33:37;9.90;;;5.70;;
58238;SDS011;44037;55.638;37.356;2023-03-14T10:36:05;8.68;;;5.88;;
58238;SDS011;44037;55.638;37.356;2023-03-14T10:38:43;9.05;;;6.10;;
58238;SDS011;44037;55.638;37.356;2023-03-14T10:41:17;8.80;;;5.60;;
58238;SDS011;44037;55.638;37.356;2023-03-14T10:43:46;11.68;;;6.35;;
58238;SDS011;44037;55.638;37.356;2023-03-14T10:46:17;11.10;;;6.72;;
58238;SDS011;44037;55.638;37.356;2023-03-14T10:48:46;11.15;;;5.57;;
58238;SDS011;44037;55.638;37.356;2023-03-14T10:51:18;9.48;;;5.93;;
58238;SDS011;44037;55.638;37.356;2023-03-14T10:53:48;8.20;;;5.65;;
58238;SDS011;44037;55.638;37.356;2023-03-14T10:56:17;7.47;;;5.28;;
58238;SDS011;44037;55.638;37.356;2023-03-14T10:58:46;8.85;;;5.72;;
58238;SDS011;44037;55.638;37.356;2023-03-14T11:01:20;7.85;;;6.75;;
58238;SDS011;44037;55.638;37.356;2023-03-14T11:03:57;8.45;;;5.75;;
58238;SDS011;44037;55.638;37.356;2023-03-14T11:06:32;10.10;;;5.90;;
58238;SDS011;44037;55.638;37.356;2023-03-14T11:11:40;9.10;;;6.00;;
58238;SDS011;44037;55.638;37.356;2023-03-14T11:14:15;9.40;;;5.10;;
58238;SDS011;44037;55.638;37.356;2023-03-14T11:16:51;10.90;;;5.55;;
58238;SDS011;44037;55.638;37.356;2023-03-14T11:19:24;9.75;;;4.47;;
58238;SDS011;44037;55.638;37.356;2023-03-14T11:22:08;11.77;;;7.10;;
58238;SDS011;44037;55.638;37.356;2023-03-14T11:24:51;6.60;;;4.65;;
58238;SDS011;44037;55.638;37.356;2023-03-14T11:27:35;8.30;;;5.53;;
58238;SDS011;44037;55.638;37.356;2023-03-14T11:30:18;9.02;;;5.40;;
58238;SDS011;44037;55.638;37.356;2023-03-14T11:32:50;7.28;;;4.80;;
58238;SDS011;44037;55.638;37.356;2023-03-14T11:35:26;8.18;;;4.95;;
58238;SDS011;44037;55.638;37.356;2023-03-14T11:37:58;6.65;;;4.13;;
58238;SDS011;44037;55.638;37.356;2023-03-14T11:40:38;7.03;;;5.07;;
58238;SDS011;44037;55.638;37.356;2023-03-14T11:43:08;9.60;;;4.80;;
58238;SDS011;44037;55.638;37.356;2023-03-14T11:45:41;8.15;;;4.72;;
58238;SDS011;44037;55.638;37.356;2023-03-14T11:48:20;7.43;;;4.60;;
58238;SDS011;44037;55.638;37.356;2023-03-14T11:50:56;5.38;;;4.28;;
58238;SDS011;44037;55.638;37.356;2023-03-14T11:53:32;6.60;;;4.65;;
58238;SDS011;44037;55.638;37.356;2023-03-14T11:56:11;7.97;;;5.28;;
58238;SDS011;44037;55.638;37.356;2023-03-14T11:58:50;11.77;;;5.57;;
58238;SDS011;44037;55.638;37.356;2023-03-14T12:01:22;10.15;;;4.85;;
58238;SDS011;44037;55.638;37.356;2023-03-14T12:03:58;7.35;;;4.88;;
58238;SDS011;44037;55.638;37.356;2023-03-14T12:06:34;6.75;;;4.47;;
58238;SDS011;44037;55.638;37.356;2023-03-14T12:09:12;6.30;;;4.53;;
58238;SDS011;44037;55.638;37.356;2023-03-14T12:11:42;6.75;;;4.40;;
58238;SDS011;44037;55.638;37.356;2023-03-14T12:14:21;4.47;;;3.80;;
58238;SDS011;44037;55.638;37.356;2023-03-14T12:16:52;7.68;;;4.15;;
58238;SDS011;44037;55.638;37.356;2023-03-14T12:19:26;8.15;;;4.35;;
58238;SDS011;44037;55.638;37.356;2023-03-14T12:24:53;12.05;;;4.97;;
58238;SDS011;44037;55.638;37.356;2023-03-14T12:27:40;7.88;;;5.32;;
58238;SDS011;44037;55.638;37.356;2023-03-14T12:30:14;7.60;;;4.22;;
58238;SDS011;44037;55.638;37.356;2023-03-14T12:36:00;9.30;;;3.60;;
58238;SDS011;44037;55.638;37.356;2023-03-14T12:38:51;11.95;;;3.65;;
58238;SDS011;44037;55.638;37.356;2023-03-14T12:41:51;9.85;;;5.68;;
58238;SDS011;44037;55.638;37.356;2023-03-14T12:50:32;6.88;;;3.90;;
58238;SDS011;44037;55.638;37.356;2023-03-14T12:55:55;7.07;;;4.75;;
58238;SDS011;44037;55.638;37.356;2023-03-14T12:58:30;7.45;;;4.18;;
58238;SDS011;44037;55.638;37.356;2023-03-14T13:01:03;6.65;;;4.57;;
58238;SDS011;44037;55.638;37.356;2023-03-14T13:03:43;7.28;;;4.05;;
58238;SDS011;44037;55.638;37.356;2023-03-14T13:06:13;6.25;;;3.92;;
58238;SDS011;44037;55.638;37.356;2023-03-14T13:09:35;7.25;;;3.58;;
58238;SDS011;44037;55.638;37.356;2023-03-14T13:12:17;6.22;;;3.72;;
58238;SDS011;44037;55.638;37.356;2023-03-14T13:14:49;5.18;;;4.07;;
58238;SDS011;44037;55.638;37.356;2023-03-14T13:17:22;7.10;;;4.32;;
58238;SDS011;44037;55.638;37.356;2023-03-14T13:19:53;9.40;;;4.18;;
58238;SDS011;44037;55.638;37.356;2023-03-14T13:22:24;6.10;;;4.80;;
58238;SDS011;44037;55.638;37.356;2023-03-14T13:25:00;7.78;;;3.88;;
58238;SDS011;44037;55.638;37.356;2023-03-14T13:27:29;5.80;;;3.70;;
58238;SDS011;44037;55.638;37.356;2023-03-14T13:29:58;7.13;;;3.85;;
58238;SDS011;44037;55.638;37.356;2023-03-14T13:32:27;8.70;;;4.00;;
58238;SDS011;44037;55.638;37.356;2023-03-14T13:34:55;6.47;;;4.18;;
58238;SDS011;44037;55.638;37.356;2023-03-14T13:37:24;6.07;;;4.68;;
58238;SDS011;44037;55.638;37.356;2023-03-14T13:39:52;8.80;;;4.35;;
58238;SDS011;44037;55.638;37.356;2023-03-14T13:42:21;7.55;;;3.90;;
58238;SDS011;44037;55.638;37.356;2023-03-14T13:44:53;7.00;;;4.70;;
58238;SDS011;44037;55.638;37.356;2023-03-14T13:47:22;9.95;;;7.57;;
58238;SDS011;44037;55.638;37.356;2023-03-14T13:49:53;7.93;;;5.22;;
58238;SDS011;44037;55.638;37.356;2023-03-14T13:52:21;6.82;;;4.00;;
58238;SDS011;44037;55.638;37.356;2023-03-14T13:54:55;9.57;;;4.47;;
58238;SDS011;44037;55.638;37.356;2023-03-14T13:57:23;11.30;;;4.78;;
58238;SDS011;44037;55.638;37.356;2023-03-14T14:00:00;8.98;;;5.75;;
58238;SDS011;44037;55.638;37.356;2023-03-14T14:02:33;11.57;;;4.70;;
58238;SDS011;44037;55.638;37.356;2023-03-14T14:05:04;6.53;;;4.60;;
58238;SDS011;44037;55.638;37.356;2023-03-14T14:07:32;10.57;;;5.63;;
58238;SDS011;44037;55.638;37.356;2023-03-14T14:09:59;7.22;;;3.92;;
58238;SDS011;44037;55.638;37.356;2023-03-14T14:12:29;9.05;;;5.18;;
58238;SDS011;44037;55.638;37.356;2023-03-14T14:14:59;7.93;;;4.85;;
58238;SDS011;44037;55.638;37.356;2023-03-14T14:17:30;9.48;;;7.00;;
58238;SDS011;44037;55.638;37.356;2023-03-14T14:20:00;7.88;;;5.80;;
58238;SDS011;44037;55.638;37.356;2023-03-14T14:22:32;10.10;;;5.18;;
58238;SDS011;44037;55.638;37.356;2023-03-14T14:24:59;7.13;;;4.55;;
58238;SDS011;44037;55.638;37.356;2023-03-14T14:27:29;10.13;;;5.50;;
58238;SDS011;44037;55.638;37.356;2023-03-14T14:30:01;6.45;;;4.20;;
58238;SDS011;44037;55.638;37.356;2023-03-14T14:32:34;7.63;;;4.28;;
58238;SDS011;44037;55.638;37.356;2023-03-14T14:35:02;6.15;;;4.22;;
58238;SDS011;44037;55.638;37.356;2023-03-14T14:37:32;6.63;;;3.83;;
58238;SDS011;44037;55.638;37.356;2023-03-14T14:40:01;9.13;;;5.28;;
58238;SDS011;44037;55.638;37.356;2023-03-14T14:42:38;6.65;;;3.65;;
58238;SDS011;44037;55.638;37.356;2023-03-14T14:45:09;8.32;;;5.03;;
58238;SDS011;44037;55.638;37.356;2023-03-14T14:47:47;8.20;;;4.13;;
58238;SDS011;44037;55.638;37.356;2023-03-14T14:50:20;5.00;;;3.88;;
58238;SDS011;44037;55.638;37.356;2023-03-14T14:52:57;7.75;;;4.25;;
58238;SDS011;44037;55.638;37.356;2023-03-14T14:55:28;5.80;;;4.15;;
58238;SDS011;44037;55.638;37.356;2023-03-14T14:57:58;6.45;;;3.63;;
58238;SDS011;44037;55.638;37.356;2023-03-14T15:00:40;7.50;;;4.43;;
58238;SDS011;44037;55.638;37.356;2023-03-14T15:03:10;8.32;;;4.90;;
58238;SDS011;44037;55.638;37.356;2023-03-14T15:05:39;9.05;;;4.20;;